createdAt,value
2019-05-18T00:00:39.817Z,99.90
2019-05-18T00:03:24.294Z,99.90
2019-05-18T00:06:08.714Z,99.90
2019-05-18T00:08:52.996Z,99.90
2019-05-18T00:11:36.854Z,99.90
2019-05-18T00:14:20.681Z,99.90
2019-05-18T00:17:07.902Z,99.90
2019-05-18T00:19:52.907Z,99.90
2019-05-18T00:22:37.358Z,99.90
2019-05-18T00:25:22.009Z,99.90
2019-05-18T00:28:06.284Z,99.90
2019-05-18T00:36:45.760Z,99.90
2019-05-18T00:39:29.505Z,99.90
2019-05-18T00:42:13.397Z,99.90
2019-05-18T00:44:57.901Z,99.90
2019-05-18T00:47:42.512Z,99.90
2019-05-18T00:53:28.804Z,99.90
2019-05-18T00:56:13.055Z,99.90
2019-05-18T00:58:58.907Z,99.90
2019-05-18T01:01:42.956Z,99.90
2019-05-18T01:04:29.394Z,99.90
2019-05-18T01:07:13.641Z,99.90
2019-05-18T01:09:59.770Z,99.90
2019-05-18T01:12:43.690Z,99.90
2019-05-18T01:15:27.890Z,99.90
2019-05-18T01:18:12.161Z,99.90
2019-05-18T01:20:56.828Z,99.90
2019-05-18T01:23:41.081Z,99.90
2019-05-18T01:26:24.738Z,99.90
2019-05-18T01:29:08.503Z,99.90
2019-05-18T01:31:54.331Z,99.90
2019-05-18T01:34:38.452Z,99.90
2019-05-18T01:37:24.526Z,99.90
2019-05-18T01:43:09.755Z,99.90
2019-05-18T01:45:54.458Z,99.90
2019-05-18T01:48:39.017Z,99.90
2019-05-18T01:51:25.297Z,99.90
2019-05-18T01:56:54.397Z,99.90
2019-05-18T01:59:38.483Z,99.90
2019-05-18T02:02:22.154Z,99.90
2019-05-18T02:05:06.284Z,99.90
2019-05-18T02:07:51.783Z,99.90
2019-05-18T02:10:36.359Z,99.90
2019-05-18T02:13:20.578Z,99.90
2019-05-18T02:16:04.254Z,99.90
2019-05-18T02:18:48.768Z,99.90
2019-05-18T02:21:33.255Z,99.90
2019-05-18T02:24:17.013Z,99.90
2019-05-18T02:27:01.146Z,99.90
2019-05-18T02:29:44.965Z,99.90
2019-05-18T02:32:29.553Z,99.90
2019-05-18T02:35:13.310Z,99.90
2019-05-18T02:38:14.348Z,99.90
2019-05-18T02:40:58.079Z,99.90
2019-05-18T02:43:42.649Z,99.90
2019-05-18T02:46:26.448Z,99.90
2019-05-18T02:49:10.660Z,99.90
2019-05-18T02:51:55.955Z,99.90
2019-05-18T02:54:40.328Z,99.90
2019-05-18T02:57:24.304Z,99.90
2019-05-18T03:00:09.095Z,99.90
2019-05-18T03:02:54.418Z,99.90
2019-05-18T03:05:38.679Z,99.90
2019-05-18T03:08:22.468Z,99.90
2019-05-18T03:11:07.013Z,99.90
2019-05-18T03:13:50.725Z,99.90
2019-05-18T03:16:34.968Z,99.90
2019-05-18T03:19:19.191Z,99.90
2019-05-18T03:22:03.212Z,99.90
2019-05-18T03:24:47.014Z,99.90
2019-05-18T03:27:33.107Z,99.90
2019-05-18T03:30:17.379Z,99.90
2019-05-18T03:33:01.410Z,99.90
2019-05-18T03:35:45.789Z,99.90
2019-05-18T03:38:30.720Z,99.90
2019-05-18T03:41:14.735Z,99.90
2019-05-18T03:43:59.069Z,99.90
2019-05-18T03:46:43.540Z,99.90
2019-05-18T03:49:28.036Z,99.90
2019-05-18T03:52:12.423Z,99.90
2019-05-18T03:54:56.989Z,99.90
2019-05-18T03:57:41.173Z,99.90
2019-05-18T04:00:24.824Z,99.90
2019-05-18T04:03:08.340Z,99.90
2019-05-18T04:05:51.942Z,99.90
2019-05-18T04:08:36.378Z,99.90
2019-05-18T04:11:20.521Z,99.90
2019-05-18T04:14:08.304Z,99.90
2019-05-18T04:16:52.179Z,99.90
2019-05-18T04:19:46.524Z,99.90
2019-05-18T04:22:22.247Z,99.90
2019-05-18T04:24:54.861Z,99.90
2019-05-18T04:27:38.465Z,99.90
2019-05-18T04:30:23.107Z,99.90
2019-05-18T04:33:06.927Z,99.90
2019-05-18T04:35:50.709Z,99.90
2019-05-18T04:38:35.196Z,99.90
2019-05-18T04:41:18.807Z,99.90
2019-05-18T04:44:02.684Z,99.90
2019-05-18T04:46:48.183Z,99.90
2019-05-18T04:49:32.338Z,99.90
2019-05-18T04:52:16.013Z,99.90
2019-05-18T04:55:00.188Z,99.90
2019-05-18T05:00:28.292Z,99.90
2019-05-18T05:03:12.920Z,99.90
2019-05-18T05:05:56.714Z,99.90
2019-05-18T05:08:40.616Z,99.90
2019-05-18T05:11:24.222Z,99.90
2019-05-18T05:14:07.976Z,99.90
2019-05-18T05:16:52.673Z,99.90
2019-05-18T05:19:38.621Z,99.90
2019-05-18T05:22:22.682Z,99.90
2019-05-18T05:25:07.973Z,99.90
2019-05-18T05:27:51.872Z,99.90
2019-05-18T05:30:37.421Z,99.90
2019-05-18T05:33:21.866Z,99.90
2019-05-18T05:36:08.104Z,99.90
2019-05-18T05:38:52.004Z,99.90
2019-05-18T05:41:36.125Z,99.90
2019-05-18T05:44:26.421Z,99.90
2019-05-18T05:47:10.037Z,99.90
2019-05-18T05:49:54.536Z,99.90
2019-05-18T05:52:38.483Z,99.90
2019-05-18T05:55:22.056Z,99.90
2019-05-18T05:58:05.696Z,99.90
2019-05-18T06:00:49.945Z,99.90
2019-05-18T06:03:33.437Z,99.90
2019-05-18T06:06:18.181Z,99.90
2019-05-18T06:09:05.836Z,99.90
2019-05-18T06:11:49.894Z,99.90
2019-05-18T06:14:34.297Z,99.90
2019-05-18T06:17:18.653Z,99.90
2019-05-18T06:20:04.233Z,99.90
2019-05-18T06:22:49.457Z,99.90
2019-05-18T06:25:34.488Z,99.90
2019-05-18T06:28:18.870Z,99.90
2019-05-18T06:31:02.811Z,99.90
2019-05-18T06:33:47.683Z,99.90
2019-05-18T06:36:32.049Z,99.90
2019-05-18T06:39:17.362Z,99.90
2019-05-18T06:42:01.463Z,99.90
2019-05-18T06:47:30.356Z,99.90
2019-05-18T06:50:14.561Z,99.90
2019-05-18T06:53:04.392Z,99.90
2019-05-18T06:55:49.064Z,99.90
2019-05-18T06:58:35.132Z,99.90
2019-05-18T07:01:19.513Z,99.90
2019-05-18T07:04:05.884Z,99.90
2019-05-18T07:06:49.819Z,99.90
2019-05-18T07:09:40.191Z,99.90
2019-05-18T07:12:24.087Z,99.90
2019-05-18T07:15:08.234Z,99.10
2019-05-18T07:17:52.636Z,99.20
2019-05-18T07:20:36.425Z,99.30
2019-05-18T07:23:21.197Z,98.50
2019-05-18T07:26:05.880Z,97.60
2019-05-18T07:28:50.479Z,98.50
2019-05-18T07:31:34.017Z,97.60
2019-05-18T07:34:18.135Z,98.10
2019-05-18T07:37:02.249Z,97.90
2019-05-18T07:39:46.346Z,97.80
2019-05-18T07:42:30.505Z,98.00
2019-05-18T07:45:16.293Z,97.90
2019-05-18T07:48:00.211Z,97.20
2019-05-18T07:50:44.214Z,96.80
2019-05-18T07:53:28.744Z,96.20
2019-05-18T07:56:12.456Z,96.00
2019-05-18T07:58:56.061Z,95.20
2019-05-18T08:01:41.478Z,94.70
2019-05-18T08:04:25.022Z,94.30
2019-05-18T08:07:09.082Z,94.10
2019-05-18T08:09:54.804Z,93.30
2019-05-18T08:12:38.998Z,93.50
2019-05-18T08:15:23.677Z,94.20
2019-05-18T08:18:08.336Z,94.60
2019-05-18T08:20:52.251Z,93.30
2019-05-18T08:23:36.326Z,93.50
2019-05-18T08:26:20.223Z,91.70
2019-05-18T08:29:04.811Z,91.60
2019-05-18T08:31:48.413Z,91.90
2019-05-18T08:34:32.787Z,89.90
2019-05-18T08:37:17.179Z,90.40
2019-05-18T08:40:00.743Z,88.90
2019-05-18T08:42:44.935Z,89.50
2019-05-18T08:45:28.600Z,87.30
2019-05-18T08:48:12.387Z,86.50
2019-05-18T08:50:57.182Z,87.00
2019-05-18T08:53:40.835Z,89.40
2019-05-18T08:56:24.867Z,85.90
2019-05-18T08:59:08.520Z,85.90
2019-05-18T09:01:52.435Z,87.80
2019-05-18T09:04:37.767Z,87.50
2019-05-18T09:07:22.404Z,88.30
2019-05-18T09:10:07.131Z,86.20
2019-05-18T09:12:39.553Z,85.30
2019-05-18T09:15:25.481Z,87.40
2019-05-18T09:18:09.996Z,87.90
2019-05-18T09:20:54.114Z,87.20
2019-05-18T09:23:37.859Z,87.20
2019-05-18T09:26:23.397Z,87.60
2019-05-18T09:31:51.991Z,82.40
2019-05-18T09:34:35.789Z,82.20
2019-05-18T09:37:20.426Z,79.10
2019-05-18T09:40:06.050Z,78.50
2019-05-18T09:42:49.888Z,78.70
2019-05-18T09:45:33.809Z,78.90
2019-05-18T09:48:18.095Z,76.20
2019-05-18T09:51:02.927Z,80.10
2019-05-18T09:53:35.290Z,79.90
2019-05-18T09:56:21.105Z,79.40
2019-05-18T09:59:04.984Z,78.80
2019-05-18T10:01:49.083Z,75.30
2019-05-18T10:04:33.219Z,74.10
2019-05-18T10:07:18.247Z,74.40
2019-05-18T10:10:03.603Z,73.10
2019-05-18T10:12:47.279Z,71.40
2019-05-18T10:15:31.728Z,70.30
2019-05-18T10:18:15.766Z,71.40
2019-05-18T10:20:59.923Z,72.20
2019-05-18T10:23:43.653Z,71.30
2019-05-18T10:26:28.002Z,71.20
2019-05-18T10:29:12.246Z,70.40
2019-05-18T10:31:56.999Z,70.40
2019-05-18T10:34:45.004Z,70.10
2019-05-18T10:37:29.505Z,70.80
2019-05-18T10:40:14.132Z,71.90
2019-05-18T10:46:08.860Z,71.40
2019-05-18T10:48:53.218Z,69.70
2019-05-18T10:51:38.531Z,67.90
2019-05-18T10:54:23.727Z,68.60
2019-05-18T10:57:07.532Z,70.10
2019-05-18T10:59:54.062Z,68.00
2019-05-18T11:02:26.641Z,69.00
2019-05-18T11:05:10.779Z,67.20
2019-05-18T11:07:54.509Z,67.90
2019-05-18T11:10:39.174Z,67.90
2019-05-18T11:13:23.591Z,67.90
2019-05-18T11:16:09.339Z,66.60
2019-05-18T11:18:53.324Z,67.70
2019-05-18T11:21:36.995Z,69.80
2019-05-18T11:24:21.059Z,71.40
2019-05-18T11:27:07.088Z,68.10
2019-05-18T11:29:51.162Z,70.20
2019-05-18T11:35:21.014Z,71.70
2019-05-18T11:37:54.459Z,70.60
2019-05-18T11:40:39.777Z,70.90
2019-05-18T11:43:23.729Z,69.40
2019-05-18T11:46:08.168Z,69.70
2019-05-18T11:48:55.560Z,68.80
2019-05-18T11:51:39.279Z,68.70
2019-05-18T11:54:23.391Z,66.60
2019-05-18T11:57:08.020Z,66.40
2019-05-18T11:59:52.032Z,66.50
2019-05-18T12:02:37.089Z,68.60
2019-05-18T12:05:20.904Z,68.00
2019-05-18T12:08:05.315Z,68.10
2019-05-18T12:10:56.091Z,68.90
2019-05-18T12:13:51.355Z,67.30
2019-05-18T12:16:39.593Z,67.30
2019-05-18T12:19:24.058Z,68.00
2019-05-18T12:22:08.432Z,67.30
2019-05-18T12:24:57.166Z,70.30
2019-05-18T12:27:41.356Z,62.70
2019-05-18T12:30:26.211Z,64.80
2019-05-18T12:33:10.584Z,66.60
2019-05-18T12:35:56.161Z,65.80
2019-05-18T12:38:40.551Z,66.10
2019-05-18T12:41:31.635Z,64.10
2019-05-18T12:44:15.486Z,66.30
2019-05-18T12:47:01.606Z,65.30
2019-05-18T12:49:45.799Z,65.10
2019-05-18T12:52:29.693Z,66.70
2019-05-18T12:55:14.218Z,67.10
2019-05-18T12:57:58.785Z,70.00
2019-05-18T13:00:43.477Z,65.70
2019-05-18T13:03:27.497Z,65.90
2019-05-18T13:06:11.777Z,68.50
2019-05-18T13:08:57.707Z,67.30
2019-05-18T13:11:41.800Z,68.10
2019-05-18T13:14:25.605Z,67.80
2019-05-18T13:17:09.706Z,67.50
2019-05-18T13:19:53.223Z,67.10
2019-05-18T13:22:37.563Z,67.90
2019-05-18T13:25:21.928Z,68.60
2019-05-18T13:28:06.180Z,68.60
2019-05-18T13:30:50.379Z,67.50
2019-05-18T13:33:34.195Z,68.20
2019-05-18T13:36:18.709Z,69.70
2019-05-18T13:39:02.651Z,70.00
2019-05-18T13:41:46.688Z,71.20
2019-05-18T13:44:30.263Z,69.50
2019-05-18T13:47:14.086Z,73.20
2019-05-18T13:49:58.418Z,69.30
2019-05-18T13:52:43.178Z,68.30
2019-05-18T13:55:29.019Z,68.20
2019-05-18T13:58:12.805Z,70.40
2019-05-18T14:00:57.354Z,69.90
2019-05-18T14:03:41.192Z,69.70
2019-05-18T14:06:26.348Z,69.30
2019-05-18T14:08:58.887Z,68.30
2019-05-18T14:11:43.731Z,67.90
2019-05-18T14:14:29.657Z,68.90
2019-05-18T14:17:02.180Z,69.70
2019-05-18T14:19:50.033Z,68.00
2019-05-18T14:22:34.329Z,65.60
2019-05-18T14:25:19.740Z,66.90
2019-05-18T14:28:03.696Z,66.80
2019-05-18T14:30:47.704Z,65.60
2019-05-18T14:33:31.650Z,68.20
2019-05-18T14:36:16.573Z,69.10
2019-05-18T14:39:00.802Z,66.70
2019-05-18T14:44:47.039Z,65.80
2019-05-18T14:47:31.157Z,65.10
2019-05-18T14:50:15.548Z,64.50
2019-05-18T14:52:59.272Z,66.20
2019-05-18T14:55:42.862Z,66.30
2019-05-18T14:58:27.144Z,66.50
2019-05-18T15:01:10.842Z,66.10
2019-05-18T15:03:56.416Z,66.20
2019-05-18T15:06:30.727Z,66.60
2019-05-18T15:09:04.336Z,67.40
2019-05-18T15:11:36.797Z,67.30
2019-05-18T15:14:20.559Z,64.90
2019-05-18T15:16:53.181Z,66.30
2019-05-18T15:19:25.630Z,63.40
2019-05-18T15:21:57.902Z,64.20
2019-05-18T15:24:30.622Z,63.50
2019-05-18T15:27:03.893Z,64.40
2019-05-18T15:29:36.208Z,64.50
2019-05-18T15:32:08.782Z,63.80
2019-05-18T15:34:41.118Z,64.10
2019-05-18T15:37:24.812Z,64.50
2019-05-18T15:39:57.151Z,64.20
2019-05-18T15:42:41.409Z,63.80
2019-05-18T15:45:14.132Z,61.70
2019-05-18T15:47:46.813Z,63.00
2019-05-18T15:50:32.325Z,62.20
2019-05-18T15:53:16.246Z,62.70
2019-05-18T15:56:05.952Z,63.00
2019-05-18T15:58:47.497Z,61.70
2019-05-18T16:01:32.028Z,61.20
2019-05-18T16:04:16.940Z,60.90
2019-05-18T16:07:00.813Z,60.00
2019-05-18T16:09:45.152Z,60.50
2019-05-18T16:12:29.338Z,60.30
2019-05-18T16:15:02.594Z,59.20
2019-05-18T16:17:54.551Z,62.50
2019-05-18T16:20:38.755Z,60.00
2019-05-18T16:23:22.780Z,59.50
2019-05-18T16:26:20.657Z,60.00
2019-05-18T16:28:53.672Z,60.40
2019-05-18T16:31:37.532Z,59.70
2019-05-18T16:34:22.905Z,57.90
2019-05-18T16:37:06.846Z,58.00
2019-05-18T16:39:51.256Z,58.30
2019-05-18T16:42:35.172Z,56.70
2019-05-18T16:45:19.754Z,58.10
2019-05-18T16:48:04.377Z,58.80
2019-05-18T16:50:48.969Z,59.00
2019-05-18T16:53:32.921Z,59.70
2019-05-18T16:56:16.610Z,59.00
2019-05-18T16:59:01.038Z,64.50
2019-05-18T17:04:48.538Z,73.90
2019-05-18T17:07:20.963Z,76.80
2019-05-18T17:10:05.722Z,78.00
2019-05-18T17:12:50.404Z,76.50
2019-05-18T17:15:34.498Z,77.60
2019-05-18T17:18:18.319Z,79.30
2019-05-18T17:21:03.000Z,79.30
2019-05-18T17:23:47.994Z,79.30
2019-05-18T17:26:32.782Z,80.50
2019-05-18T17:29:18.303Z,81.30
2019-05-18T17:32:02.691Z,82.60
2019-05-18T17:34:47.040Z,84.30
2019-05-18T17:37:31.547Z,84.60
2019-05-18T17:40:16.039Z,85.70
2019-05-18T17:43:00.845Z,86.70
2019-05-18T17:45:44.836Z,87.90
2019-05-18T17:48:30.510Z,87.90
2019-05-18T17:51:14.767Z,88.50
2019-05-18T17:53:59.405Z,88.40
2019-05-18T17:56:44.780Z,88.80
2019-05-18T17:59:29.564Z,89.50
2019-05-18T18:02:15.008Z,89.60
2019-05-18T18:04:59.497Z,90.20
2019-05-18T18:07:43.012Z,90.70
2019-05-18T18:10:27.035Z,91.00
2019-05-18T18:13:11.736Z,91.40
2019-05-18T18:15:58.363Z,91.70
2019-05-18T18:18:46.803Z,91.80
2019-05-18T18:21:31.520Z,91.90
2019-05-18T18:24:15.512Z,91.90
2019-05-18T18:26:59.842Z,92.20
2019-05-18T18:29:43.762Z,92.50
2019-05-18T18:32:28.365Z,92.30
2019-05-18T18:35:13.108Z,92.50
2019-05-18T18:37:57.601Z,92.80
2019-05-18T18:40:42.660Z,92.80
2019-05-18T18:43:27.753Z,93.00
2019-05-18T18:46:11.793Z,93.40
2019-05-18T18:48:56.730Z,93.40
2019-05-18T18:51:40.490Z,93.70
2019-05-18T18:54:24.517Z,94.10
2019-05-18T18:57:08.290Z,94.40
2019-05-18T18:59:52.131Z,94.50
2019-05-18T19:02:36.367Z,95.00
2019-05-18T19:05:20.986Z,94.40
2019-05-18T19:08:04.784Z,95.10
2019-05-18T19:10:49.006Z,95.30
2019-05-18T19:13:21.644Z,95.40
2019-05-18T19:16:07.730Z,95.70
2019-05-18T19:18:52.245Z,96.40
2019-05-18T19:21:36.426Z,96.10
2019-05-18T19:24:20.863Z,96.00
2019-05-18T19:27:06.306Z,96.20
2019-05-18T19:29:53.248Z,96.70
2019-05-18T19:32:38.793Z,96.90
2019-05-18T19:35:28.202Z,96.90
2019-05-18T19:38:24.439Z,97.00
2019-05-18T19:41:08.356Z,97.40
2019-05-18T19:43:52.777Z,96.70
2019-05-18T19:46:38.222Z,96.60
2019-05-18T19:49:23.035Z,97.20
2019-05-18T19:52:06.818Z,98.00
2019-05-18T19:54:51.131Z,97.30
2019-05-18T19:57:36.183Z,98.00
2019-05-18T20:00:20.987Z,97.90
2019-05-18T20:02:53.981Z,98.00
2019-05-18T20:05:37.594Z,97.70
2019-05-18T20:08:21.254Z,97.80
2019-05-18T20:10:54.143Z,98.00
2019-05-18T20:13:38.520Z,98.40
2019-05-18T20:16:22.975Z,99.00
2019-05-18T20:19:06.832Z,99.40
2019-05-18T20:25:25.253Z,98.80
2019-05-18T20:28:22.857Z,98.80
2019-05-18T20:30:55.370Z,99.70
2019-05-18T20:33:28.190Z,99.70
2019-05-18T20:36:12.563Z,99.90
2019-05-18T20:38:56.642Z,99.90
2019-05-18T20:41:40.589Z,99.90
2019-05-18T20:44:24.441Z,99.90
2019-05-18T20:47:08.676Z,99.90
2019-05-18T20:49:52.304Z,99.90
2019-05-18T20:52:25.539Z,99.90
2019-05-18T20:55:09.602Z,99.90
2019-05-18T20:57:53.937Z,99.90
2019-05-18T21:03:23.284Z,99.90
2019-05-18T21:06:07.384Z,99.90
2019-05-18T21:08:51.352Z,99.90
2019-05-18T21:11:35.089Z,99.90
2019-05-18T21:14:21.287Z,99.90
2019-05-18T21:17:05.762Z,99.90
2019-05-18T21:19:50.425Z,99.90
2019-05-18T21:22:35.290Z,99.90
2019-05-18T21:25:20.415Z,99.90
2019-05-18T21:28:04.790Z,99.90
2019-05-18T21:30:52.076Z,99.90
2019-05-18T21:33:36.134Z,99.90
2019-05-18T21:36:20.552Z,99.90
2019-05-18T21:39:05.301Z,99.90
2019-05-18T21:41:49.593Z,99.90
2019-05-18T21:44:34.524Z,99.90
2019-05-18T21:47:19.027Z,99.90
2019-05-18T21:50:03.451Z,99.90
2019-05-18T21:52:47.818Z,99.90
2019-05-18T21:55:31.892Z,99.90
2019-05-18T22:00:59.464Z,99.90
2019-05-18T22:03:47.865Z,99.90
2019-05-18T22:09:32.386Z,99.90
2019-05-18T22:12:04.705Z,99.90
2019-05-18T22:14:48.313Z,99.90
2019-05-18T22:17:35.476Z,99.90
2019-05-18T22:20:21.535Z,99.90
2019-05-18T22:23:07.829Z,99.90
2019-05-18T22:25:51.515Z,99.90
2019-05-18T22:28:36.127Z,99.90
2019-05-18T22:31:20.475Z,99.90
2019-05-18T22:34:05.143Z,99.90
2019-05-18T22:36:48.852Z,99.90
2019-05-18T22:39:33.148Z,99.90
2019-05-18T22:42:05.523Z,99.90
2019-05-18T22:44:51.777Z,99.90
2019-05-18T22:47:38.454Z,99.90
2019-05-18T22:50:23.460Z,99.90
2019-05-18T22:53:07.236Z,99.90
2019-05-18T22:55:50.934Z,99.90
2019-05-18T22:58:35.181Z,99.90
2019-05-18T23:01:19.785Z,99.90
2019-05-18T23:04:04.161Z,99.90
2019-05-18T23:06:48.198Z,99.90
2019-05-18T23:09:33.625Z,99.90
2019-05-18T23:15:01.408Z,99.90
2019-05-18T23:17:45.036Z,99.90
2019-05-18T23:20:28.772Z,99.90
2019-05-18T23:23:13.095Z,99.90
2019-05-18T23:25:56.854Z,99.90
2019-05-18T23:28:41.141Z,99.90
2019-05-18T23:31:25.932Z,99.90
2019-05-18T23:34:11.512Z,99.90
2019-05-18T23:36:55.351Z,99.90
2019-05-18T23:39:39.200Z,99.90
2019-05-18T23:42:23.522Z,99.90
2019-05-18T23:45:07.571Z,99.90
2019-05-18T23:47:52.367Z,99.90
2019-05-18T23:50:36.506Z,99.90
2019-05-18T23:53:21.703Z,99.90
2019-05-18T23:56:06.036Z,99.90
2019-05-18T23:58:49.679Z,99.90
